Fogertown, Kentucky
Current Conditions -  °F | °C
As of 7:53 PM on Monday 24 Nov 2014 (Local Time) from KLOZ Reporting Station
Clear Clear  
Wind Chill: 50°   Ceiling: Unl
Heat Index: 50°   Visibility: 10mi
Dew Point: 35°   Wind: 8mph
Humidity: 57%   Direction: 290°WNW
Pressure: 29.89"   Gusts: NA
Location:  37.1101°N, 83.7537°W
Report Text: KLOZ 250053Z AUTO 29007KT 10SM CLR 10/02 A2989 RMK AO2 SLP117 T01000017
Loading
Personal Weather Stations






























Interactive Weather Map New forecast layout! Learn more

10-Day Weather Forecast

Advertisements
Track Severe Weather on mobile